Berkeley Springs, WV

10:50 AM EST on February 10, 2016 (GMT -0500)
Brookview Acres | | Change Station
CLOSE
Current Station
Personal Weather Station
Location: Berkeley Springs, WV
Elevation: 705 ft
Nearby Weather Stations

Elev 705 ft 39.58 °N, 78.22 °W | Updated 22 seconds ago

Overcast
Overcast
28.9 °F
Feels Like 25 °F
N
3.7
Wind Variable Wind from West

Today
High -- | Low -- °F
--% Chance of Precip.
Yesterday
High -- | Low -- °F
Precip. -- in
Pressure 29.81 in
Visibility 10.0 miles
Clouds Mostly Cloudy 3900 ft
Windchill 25 °F
Dew Point 17 °F
Humidity 60%
Rainfall 0.00 in
Snow Depth Not available.
7:11 AM 5:42 PM
Waxing Crescent, 6% visible
METAR KMRB 101453Z 28014G22KT 10SM BKN039 M02/M10 A2979 RMK AO2 SLP094 T10171100 51016
Pressure 29.81 in
Visibility 10.0 miles
Clouds Mostly Cloudy 3900 ft
Windchill 25 °F
Dew Point 17 °F
Humidity 60%
Rainfall 0.00 in
Snow Depth Not available.
7:11 AM 5:42 PM
Waxing Crescent, 6% visible
METAR KMRB 101453Z 28014G22KT 10SM BKN039 M02/M10 A2979 RMK AO2 SLP094 T10171100 51016

10-Day Weather Forecast

Almanac

Astronomy

Feb. 10, 2016 Rise Set
Actual Time
Civil Twilight
Nautical Twilight
Astronomical Twilight
Moon
Length of Visible Light
Length of Day
Tomorrow will be .
, % of the Moon is Illuminated

Today's Extremes

State Highs State Lows

Community

WunderPhotos

Upload Photos

1,891,863 photos uploaded!

WunderBlog® & News

Nearby

Air Quality

  Air Quality AQ Index Pollutant
Not available.

Snow Depth

Station Depth Elevation

Earthquake Activity

City Distance Mag. Time & Date
Minimum magnitude displayed is 2.5.

Coastal Water Temperatures

Place Temperature

Stations

Nearby Weather Stations

Station Location Temp. Windchill Dew Point Humidity Wind Precip. Elev Updated Type
                   

Watches & Warnings

There are currently no watches in effect.